Observations for BRIZE NORTON RA, United Kingdom (EGVN)

EGVN 140750Z 26004KT 9999 FEW020 SCT041 BKN080 17/13 Q1016 BLU NOSIG
EGVN 140750Z 26004KT 9999 FEW020 SCT041 BKN080 17/13 Q1016 NOSIG
EGVN 140650Z 26002KT 9999 BKN035 15/13 Q1015 NOSIG  
EGVN 140650Z 26002KT 9999 BKN035 15/13 Q1015 BLU NOSIG
EGVN 140550Z 26002KT 9999 BKN035 14/13 Q1015 NOSIG  
EGVN 140550Z 26002KT 9999 BKN035 14/13 Q1015 BLU NOSIG
EGVN 140450Z 25002KT 9999 OVC040 14/12 Q1015 NOSIG  
EGVN 140450Z 25002KT 9999 OVC040 14/12 Q1015 BLU NOSIG
EGVN 140350Z 27003KT 9999 BKN042 13/12 Q1014 BLU NOSIG  
EGVN 140350Z 27003KT 9999 BKN042 13/12 Q1014 NOSIG
EGVN 140250Z 23002KT 9999 SCT046 12/11 Q1014 NOSIG  
EGVN 140250Z 23002KT 9999 SCT046 12/11 Q1014 BLU NOSIG
EGVN 140150Z 27004KT 9999 FEW035 13/12 Q1014 NOSIG  
EGVN 140150Z 27004KT 9999 FEW035 13/12 Q1014 BLU NOSIG
EGVN 140050Z 29003KT 9999 FEW035 14/12 Q1013 BLU NOSIG  
EGVN 140050Z 29003KT 9999 FEW035 14/12 Q1013 NOSIG
EGVN 132350Z 31005KT 9999 FEW026 SCT034 15/12 Q1013 NOSIG   
EGVN 132350Z 31005KT 9999 FEW026 SCT034 15/12 Q1013 BLU NOSIG
EGVN 132250Z 31006KT 9999 FEW026 SCT034 16/12 Q1012 BLU NOSIG   
EGVN 132250Z 31006KT 9999 FEW026 SCT034 16/12 Q1012 NOSIG
EGVN 132150Z 27004KT 9999 FEW026 BKN035 18/15 Q1012 NOSIG   
EGVN 132150Z 27004KT 9999 FEW026 BKN035 18/15 Q1012 BLU NOSIG
EGVN 132050Z 28003KT 9999 SCT034 SCT080 18/15 Q1011 BLU NOSIG   
EGVN 132050Z 28003KT 9999 SCT034 SCT080 18/15 Q1011 NOSIG
EGVN 131950Z 31005KT 9999 FEW048 19/15 Q1011 BLU NOSIG  
EGVN 131950Z 31005KT 9999 FEW048 19/15 Q1011 NOSIG
EGVN 131850Z 32009KT 9999 FEW048 BKN080 19/15 Q1010 BLU NOSIG   
EGVN 131850Z 32009KT 9999 FEW048 BKN080 19/15 Q1010 NOSIG
EGVN 131750Z 32010KT 9999 FEW048 BKN080 20/15 Q1009 NOSIG   
EGVN 131750Z 32010KT 9999 FEW048 BKN080 20/15 Q1009 BLU NOSIG
EGVN 131650Z 31010KT 9999 SCT045 BKN090 21/14 Q1009 BLU NOSIG   
EGVN 131650Z 31010KT 9999 SCT045 BKN090 21/14 Q1009 NOSIG
EGVN 131550Z 30008KT 9999 SCT040 BKN075 24/13 Q1008 NOSIG   
EGVN 131550Z 30008KT 9999 SCT040 BKN075 24/13 Q1008 BLU NOSIG
EGVN 131450Z 30008KT 9999 FEW034 SCT250 24/12 Q1008 NOSIG   
EGVN 131450Z 30008KT 9999 FEW034 SCT250 24/12 Q1008 BLU NOSIG
EGVN 131350Z 30006KT 9999 FEW032 SCT048 22/13 Q1008 NOSIG   
EGVN 131350Z 30006KT 9999 FEW032 SCT048 22/13 Q1008 BLU NOSIG
EGVN 131250Z 30007KT 9999 FEW030 BKN045 21/13 Q1008 BLU NOSIG   
EGVN 131250Z 30007KT 9999 FEW030 BKN045 21/13 Q1008 NOSIG
EGVN 131150Z 29007KT 9999 SCT026 BKN048 22/13 Q1007 NOSIG   
EGVN 131150Z 29007KT 9999 SCT026 BKN048 22/13 Q1007 BLU NOSIG
EGVN 131050Z 26006KT 9999 SCT020 BKN080 21/14 Q1007 BECMG SCT025
EGVN 131050Z 26006KT 9999 SCT020 BKN080 21/14 Q1007 WHT BECMG SCT025 BLU
EGVN 131027Z 28006KT 9999 SCT018 SCT025 19/14 Q1007 WHT BECMG SCT025 BLU
EGVN 130950Z 26005KT 9999 FEW013 BKN045 19/15 Q1007 TEMPO SCT020
EGVN 130950Z 26005KT 9999 FEW013 BKN045 19/15 Q1007 BLU TEMPO SCT020 WHT
EGVN 130850Z 31005KT 9999 FEW012 BKN035 BKN050 17/15 Q1007 TEMPO SCT020 
EGVN 130850Z 31005KT 9999 FEW012 BKN035 BKN050 17/15 Q1007 BLU TEMPO SCT020 WHT
EGVN 130820Z 32007KT 9999 -DZ FEW012 SCT032 BKN046 17/15 Q1006 BLU TEMPO SCT020WHT
EGVN 130750Z 33008KT 9999 -DZ FEW012 SCT020 BKN038 16/15 Q1006 NOSIG
EGVN 130750Z 33008KT 9999 -DZ FEW012 SCT020 BKN038 16/15 Q1006 WHT NOSIG